sensor_id;sensor_type;location;lat;lon;timestamp;P1;durP1;ratioP1;P2;durP2;ratioP2
22230;SDS011;11284;48.086;-1.652;2022-10-26T00:00:07;10.38;;;2.63;;
22230;SDS011;11284;48.086;-1.652;2022-10-26T00:02:33;7.85;;;2.17;;
22230;SDS011;11284;48.086;-1.652;2022-10-26T00:04:59;7.47;;;2.47;;
22230;SDS011;11284;48.086;-1.652;2022-10-26T00:07:27;7.88;;;2.05;;
22230;SDS011;11284;48.086;-1.652;2022-10-26T00:09:53;8.90;;;2.33;;
22230;SDS011;11284;48.086;-1.652;2022-10-26T00:12:19;8.52;;;2.10;;
22230;SDS011;11284;48.086;-1.652;2022-10-26T00:14:45;11.90;;;3.25;;
22230;SDS011;11284;48.086;-1.652;2022-10-26T00:17:11;11.73;;;3.03;;
22230;SDS011;11284;48.086;-1.652;2022-10-26T00:19:37;9.38;;;2.80;;
22230;SDS011;11284;48.086;-1.652;2022-10-26T00:22:03;7.07;;;1.80;;
22230;SDS011;11284;48.086;-1.652;2022-10-26T00:24:29;8.88;;;2.22;;
22230;SDS011;11284;48.086;-1.652;2022-10-26T00:26:55;8.65;;;2.15;;
22230;SDS011;11284;48.086;-1.652;2022-10-26T00:29:21;8.77;;;2.28;;
22230;SDS011;11284;48.086;-1.652;2022-10-26T00:31:47;10.18;;;2.42;;
22230;SDS011;11284;48.086;-1.652;2022-10-26T00:34:13;10.77;;;2.10;;
22230;SDS011;11284;48.086;-1.652;2022-10-26T00:36:39;8.45;;;2.17;;
22230;SDS011;11284;48.086;-1.652;2022-10-26T00:39:05;9.90;;;2.30;;
22230;SDS011;11284;48.086;-1.652;2022-10-26T00:41:32;7.32;;;1.70;;
22230;SDS011;11284;48.086;-1.652;2022-10-26T00:43:59;6.57;;;1.92;;
22230;SDS011;11284;48.086;-1.652;2022-10-26T00:46:29;11.93;;;2.05;;
22230;SDS011;11284;48.086;-1.652;2022-10-26T00:48:57;8.43;;;1.92;;
22230;SDS011;11284;48.086;-1.652;2022-10-26T00:51:34;12.75;;;2.05;;
22230;SDS011;11284;48.086;-1.652;2022-10-26T00:54:04;10.32;;;2.00;;
22230;SDS011;11284;48.086;-1.652;2022-10-26T00:56:31;13.40;;;2.03;;
22230;SDS011;11284;48.086;-1.652;2022-10-26T00:59:00;7.45;;;1.48;;
22230;SDS011;11284;48.086;-1.652;2022-10-26T01:01:27;12.90;;;1.83;;
22230;SDS011;11284;48.086;-1.652;2022-10-26T01:03:54;9.98;;;1.75;;
22230;SDS011;11284;48.086;-1.652;2022-10-26T01:06:20;8.25;;;1.83;;
22230;SDS011;11284;48.086;-1.652;2022-10-26T01:08:46;8.23;;;1.50;;
22230;SDS011;11284;48.086;-1.652;2022-10-26T01:11:12;11.75;;;1.88;;
22230;SDS011;11284;48.086;-1.652;2022-10-26T01:13:38;6.97;;;1.60;;
22230;SDS011;11284;48.086;-1.652;2022-10-26T01:16:28;11.10;;;2.40;;
22230;SDS011;11284;48.086;-1.652;2022-10-26T01:24:21;7.90;;;1.52;;
22230;SDS011;11284;48.086;-1.652;2022-10-26T01:27:02;8.65;;;1.90;;
22230;SDS011;11284;48.086;-1.652;2022-10-26T01:32:03;9.60;;;1.73;;
22230;SDS011;11284;48.086;-1.652;2022-10-26T01:34:34;6.72;;;1.50;;
22230;SDS011;11284;48.086;-1.652;2022-10-26T01:37:06;7.68;;;1.50;;
22230;SDS011;11284;48.086;-1.652;2022-10-26T01:39:37;6.68;;;1.58;;
22230;SDS011;11284;48.086;-1.652;2022-10-26T01:42:04;7.28;;;1.35;;
22230;SDS011;11284;48.086;-1.652;2022-10-26T01:44:37;8.32;;;1.50;;
22230;SDS011;11284;48.086;-1.652;2022-10-26T01:47:06;7.88;;;1.30;;
22230;SDS011;11284;48.086;-1.652;2022-10-26T01:49:35;8.50;;;1.52;;
22230;SDS011;11284;48.086;-1.652;2022-10-26T01:52:03;8.48;;;1.52;;
22230;SDS011;11284;48.086;-1.652;2022-10-26T01:54:29;6.85;;;1.50;;
22230;SDS011;11284;48.086;-1.652;2022-10-26T01:56:59;11.07;;;2.22;;
22230;SDS011;11284;48.086;-1.652;2022-10-26T02:02:15;8.05;;;1.52;;
22230;SDS011;11284;48.086;-1.652;2022-10-26T02:04:56;10.50;;;1.70;;
22230;SDS011;11284;48.086;-1.652;2022-10-26T02:12:27;12.45;;;1.77;;
22230;SDS011;11284;48.086;-1.652;2022-10-26T02:15:02;8.82;;;1.25;;
22230;SDS011;11284;48.086;-1.652;2022-10-26T02:20:10;10.15;;;1.90;;
22230;SDS011;11284;48.086;-1.652;2022-10-26T02:22:42;10.52;;;1.77;;
22230;SDS011;11284;48.086;-1.652;2022-10-26T02:25:10;7.78;;;1.60;;
22230;SDS011;11284;48.086;-1.652;2022-10-26T02:27:40;10.20;;;2.00;;
22230;SDS011;11284;48.086;-1.652;2022-10-26T02:30:08;9.93;;;2.28;;
22230;SDS011;11284;48.086;-1.652;2022-10-26T02:32:36;11.43;;;2.45;;
22230;SDS011;11284;48.086;-1.652;2022-10-26T02:35:04;12.80;;;2.22;;
22230;SDS011;11284;48.086;-1.652;2022-10-26T02:37:31;6.35;;;1.52;;
22230;SDS011;11284;48.086;-1.652;2022-10-26T02:39:57;7.57;;;1.48;;
22230;SDS011;11284;48.086;-1.652;2022-10-26T02:42:25;13.13;;;2.20;;
22230;SDS011;11284;48.086;-1.652;2022-10-26T02:44:54;10.45;;;1.60;;
22230;SDS011;11284;48.086;-1.652;2022-10-26T02:47:22;11.38;;;2.13;;
22230;SDS011;11284;48.086;-1.652;2022-10-26T02:49:51;11.77;;;2.25;;
22230;SDS011;11284;48.086;-1.652;2022-10-26T02:52:28;8.75;;;1.95;;
22230;SDS011;11284;48.086;-1.652;2022-10-26T02:59:59;10.30;;;2.58;;
22230;SDS011;11284;48.086;-1.652;2022-10-26T03:21:54;15.82;;;3.22;;
22230;SDS011;11284;48.086;-1.652;2022-10-26T03:24:20;14.77;;;3.05;;
22230;SDS011;11284;48.086;-1.652;2022-10-26T03:26:46;12.45;;;2.45;;
22230;SDS011;11284;48.086;-1.652;2022-10-26T03:29:12;18.05;;;2.80;;
22230;SDS011;11284;48.086;-1.652;2022-10-26T03:31:38;16.42;;;2.50;;
22230;SDS011;11284;48.086;-1.652;2022-10-26T03:34:04;19.40;;;3.25;;
22230;SDS011;11284;48.086;-1.652;2022-10-26T03:36:30;15.38;;;3.33;;
22230;SDS011;11284;48.086;-1.652;2022-10-26T03:38:57;15.80;;;2.75;;
22230;SDS011;11284;48.086;-1.652;2022-10-26T03:41:23;13.30;;;2.42;;
22230;SDS011;11284;48.086;-1.652;2022-10-26T03:43:49;13.65;;;2.58;;
22230;SDS011;11284;48.086;-1.652;2022-10-26T03:46:15;18.60;;;3.38;;
22230;SDS011;11284;48.086;-1.652;2022-10-26T03:48:41;10.73;;;2.72;;
22230;SDS011;11284;48.086;-1.652;2022-10-26T03:51:07;17.33;;;2.60;;
22230;SDS011;11284;48.086;-1.652;2022-10-26T03:53:33;17.60;;;3.10;;
22230;SDS011;11284;48.086;-1.652;2022-10-26T03:55:59;16.17;;;3.03;;
22230;SDS011;11284;48.086;-1.652;2022-10-26T03:58:25;15.38;;;2.95;;
22230;SDS011;11284;48.086;-1.652;2022-10-26T04:00:51;14.85;;;2.72;;
22230;SDS011;11284;48.086;-1.652;2022-10-26T04:03:17;24.17;;;3.28;;
22230;SDS011;11284;48.086;-1.652;2022-10-26T04:05:43;15.73;;;2.60;;
22230;SDS011;11284;48.086;-1.652;2022-10-26T04:08:09;17.60;;;2.95;;
22230;SDS011;11284;48.086;-1.652;2022-10-26T04:10:35;15.95;;;2.65;;
22230;SDS011;11284;48.086;-1.652;2022-10-26T04:13:01;17.83;;;2.65;;
22230;SDS011;11284;48.086;-1.652;2022-10-26T04:15:27;14.07;;;3.08;;
22230;SDS011;11284;48.086;-1.652;2022-10-26T04:17:54;13.30;;;2.22;;
22230;SDS011;11284;48.086;-1.652;2022-10-26T04:20:20;14.00;;;2.78;;
22230;SDS011;11284;48.086;-1.652;2022-10-26T04:22:46;13.15;;;2.22;;
22230;SDS011;11284;48.086;-1.652;2022-10-26T04:25:12;15.27;;;3.38;;
22230;SDS011;11284;48.086;-1.652;2022-10-26T04:27:38;10.52;;;2.38;;
22230;SDS011;11284;48.086;-1.652;2022-10-26T04:30:04;13.23;;;2.47;;
22230;SDS011;11284;48.086;-1.652;2022-10-26T04:32:33;12.10;;;2.20;;
22230;SDS011;11284;48.086;-1.652;2022-10-26T04:34:59;14.50;;;2.63;;
22230;SDS011;11284;48.086;-1.652;2022-10-26T04:37:25;14.40;;;2.50;;
22230;SDS011;11284;48.086;-1.652;2022-10-26T04:39:51;11.85;;;2.38;;
22230;SDS011;11284;48.086;-1.652;2022-10-26T04:42:17;12.48;;;2.60;;
22230;SDS011;11284;48.086;-1.652;2022-10-26T04:44:43;15.57;;;2.65;;
22230;SDS011;11284;48.086;-1.652;2022-10-26T04:47:09;13.65;;;2.25;;
22230;SDS011;11284;48.086;-1.652;2022-10-26T04:49:35;13.50;;;2.55;;
22230;SDS011;11284;48.086;-1.652;2022-10-26T04:52:01;14.70;;;2.40;;
22230;SDS011;11284;48.086;-1.652;2022-10-26T04:54:27;15.38;;;3.03;;
22230;SDS011;11284;48.086;-1.652;2022-10-26T04:56:53;13.82;;;2.67;;
22230;SDS011;11284;48.086;-1.652;2022-10-26T04:59:19;14.43;;;2.72;;
22230;SDS011;11284;48.086;-1.652;2022-10-26T05:01:45;18.90;;;3.35;;
22230;SDS011;11284;48.086;-1.652;2022-10-26T05:04:11;13.85;;;2.50;;
22230;SDS011;11284;48.086;-1.652;2022-10-26T05:06:37;13.48;;;2.60;;
22230;SDS011;11284;48.086;-1.652;2022-10-26T05:09:03;14.88;;;2.95;;
22230;SDS011;11284;48.086;-1.652;2022-10-26T05:11:29;11.23;;;2.35;;
22230;SDS011;11284;48.086;-1.652;2022-10-26T05:13:55;12.85;;;2.40;;
22230;SDS011;11284;48.086;-1.652;2022-10-26T05:16:21;15.63;;;2.60;;
22230;SDS011;11284;48.086;-1.652;2022-10-26T05:18:47;13.50;;;2.20;;
22230;SDS011;11284;48.086;-1.652;2022-10-26T05:21:14;15.50;;;3.30;;
22230;SDS011;11284;48.086;-1.652;2022-10-26T05:23:44;11.70;;;2.50;;
22230;SDS011;11284;48.086;-1.652;2022-10-26T05:26:12;14.52;;;2.30;;
22230;SDS011;11284;48.086;-1.652;2022-10-26T05:28:38;12.10;;;2.78;;
22230;SDS011;11284;48.086;-1.652;2022-10-26T05:31:04;15.02;;;2.53;;
22230;SDS011;11284;48.086;-1.652;2022-10-26T05:33:30;17.08;;;2.58;;
22230;SDS011;11284;48.086;-1.652;2022-10-26T05:35:56;14.70;;;2.53;;
22230;SDS011;11284;48.086;-1.652;2022-10-26T05:38:22;15.60;;;2.35;;
22230;SDS011;11284;48.086;-1.652;2022-10-26T05:40:49;9.25;;;1.90;;
22230;SDS011;11284;48.086;-1.652;2022-10-26T05:43:16;13.45;;;2.10;;
22230;SDS011;11284;48.086;-1.652;2022-10-26T05:45:42;10.45;;;1.90;;
22230;SDS011;11284;48.086;-1.652;2022-10-26T05:48:08;13.88;;;2.65;;
22230;SDS011;11284;48.086;-1.652;2022-10-26T05:50:34;15.60;;;2.78;;
22230;SDS011;11284;48.086;-1.652;2022-10-26T05:53:00;12.40;;;2.00;;
22230;SDS011;11284;48.086;-1.652;2022-10-26T05:55:26;12.05;;;2.25;;
22230;SDS011;11284;48.086;-1.652;2022-10-26T05:57:52;10.02;;;1.95;;
22230;SDS011;11284;48.086;-1.652;2022-10-26T06:00:23;9.00;;;2.10;;
22230;SDS011;11284;48.086;-1.652;2022-10-26T06:03:06;12.68;;;2.67;;
22230;SDS011;11284;48.086;-1.652;2022-10-26T06:05:39;14.20;;;2.30;;
22230;SDS011;11284;48.086;-1.652;2022-10-26T06:08:09;11.45;;;2.05;;
22230;SDS011;11284;48.086;-1.652;2022-10-26T06:10:36;9.80;;;2.05;;
22230;SDS011;11284;48.086;-1.652;2022-10-26T06:13:02;9.82;;;2.28;;
22230;SDS011;11284;48.086;-1.652;2022-10-26T06:15:28;11.95;;;1.90;;
22230;SDS011;11284;48.086;-1.652;2022-10-26T06:18:02;8.20;;;1.77;;
22230;SDS011;11284;48.086;-1.652;2022-10-26T06:23:03;11.90;;;2.47;;
22230;SDS011;11284;48.086;-1.652;2022-10-26T06:30:30;13.38;;;2.28;;
22230;SDS011;11284;48.086;-1.652;2022-10-26T06:32:56;9.63;;;2.03;;
22230;SDS011;11284;48.086;-1.652;2022-10-26T06:38:17;10.38;;;1.80;;
22230;SDS011;11284;48.086;-1.652;2022-10-26T06:40:45;12.90;;;2.70;;
22230;SDS011;11284;48.086;-1.652;2022-10-26T06:43:22;9.52;;;2.17;;
22230;SDS011;11284;48.086;-1.652;2022-10-26T06:45:52;15.48;;;2.47;;
22230;SDS011;11284;48.086;-1.652;2022-10-26T06:48:20;10.50;;;2.03;;
22230;SDS011;11284;48.086;-1.652;2022-10-26T06:53:26;11.10;;;2.33;;
22230;SDS011;11284;48.086;-1.652;2022-10-26T06:55:56;13.70;;;2.17;;
22230;SDS011;11284;48.086;-1.652;2022-10-26T06:58:24;10.07;;;2.17;;
22230;SDS011;11284;48.086;-1.652;2022-10-26T07:00:52;15.43;;;2.60;;
22230;SDS011;11284;48.086;-1.652;2022-10-26T07:03:19;12.13;;;2.22;;
22230;SDS011;11284;48.086;-1.652;2022-10-26T07:05:45;10.10;;;1.92;;
22230;SDS011;11284;48.086;-1.652;2022-10-26T07:08:11;12.35;;;2.25;;
22230;SDS011;11284;48.086;-1.652;2022-10-26T07:10:37;10.25;;;2.42;;
22230;SDS011;11284;48.086;-1.652;2022-10-26T07:13:06;12.05;;;2.20;;
22230;SDS011;11284;48.086;-1.652;2022-10-26T07:15:33;13.60;;;2.47;;
22230;SDS011;11284;48.086;-1.652;2022-10-26T07:17:59;10.77;;;2.33;;
22230;SDS011;11284;48.086;-1.652;2022-10-26T07:20:25;11.80;;;2.65;;
22230;SDS011;11284;48.086;-1.652;2022-10-26T07:22:55;12.30;;;2.67;;
22230;SDS011;11284;48.086;-1.652;2022-10-26T07:25:21;12.88;;;2.72;;
22230;SDS011;11284;48.086;-1.652;2022-10-26T07:27:47;12.45;;;2.58;;
22230;SDS011;11284;48.086;-1.652;2022-10-26T07:30:13;16.75;;;2.60;;
22230;SDS011;11284;48.086;-1.652;2022-10-26T07:32:39;13.77;;;2.47;;
22230;SDS011;11284;48.086;-1.652;2022-10-26T07:35:06;10.45;;;2.17;;
22230;SDS011;11284;48.086;-1.652;2022-10-26T07:37:32;13.23;;;2.30;;
22230;SDS011;11284;48.086;-1.652;2022-10-26T07:39:58;11.60;;;2.47;;
22230;SDS011;11284;48.086;-1.652;2022-10-26T07:42:24;11.30;;;2.42;;
22230;SDS011;11284;48.086;-1.652;2022-10-26T07:44:50;10.02;;;2.22;;
22230;SDS011;11284;48.086;-1.652;2022-10-26T07:47:16;13.77;;;2.55;;
22230;SDS011;11284;48.086;-1.652;2022-10-26T07:49:42;12.75;;;2.55;;
22230;SDS011;11284;48.086;-1.652;2022-10-26T07:52:08;9.27;;;2.53;;
22230;SDS011;11284;48.086;-1.652;2022-10-26T07:54:34;12.45;;;2.40;;
22230;SDS011;11284;48.086;-1.652;2022-10-26T07:57:00;11.90;;;2.22;;
22230;SDS011;11284;48.086;-1.652;2022-10-26T07:59:27;11.13;;;1.88;;
22230;SDS011;11284;48.086;-1.652;2022-10-26T08:01:53;15.98;;;2.70;;
22230;SDS011;11284;48.086;-1.652;2022-10-26T08:04:19;15.27;;;2.42;;
22230;SDS011;11284;48.086;-1.652;2022-10-26T08:06:45;15.32;;;2.92;;
22230;SDS011;11284;48.086;-1.652;2022-10-26T08:09:12;10.50;;;2.00;;
22230;SDS011;11284;48.086;-1.652;2022-10-26T08:11:38;13.55;;;2.55;;
22230;SDS011;11284;48.086;-1.652;2022-10-26T08:14:04;11.15;;;2.15;;
22230;SDS011;11284;48.086;-1.652;2022-10-26T08:16:30;10.88;;;2.30;;
22230;SDS011;11284;48.086;-1.652;2022-10-26T08:18:58;12.73;;;2.05;;
22230;SDS011;11284;48.086;-1.652;2022-10-26T08:21:24;10.43;;;2.25;;
22230;SDS011;11284;48.086;-1.652;2022-10-26T08:23:50;12.82;;;2.72;;
22230;SDS011;11284;48.086;-1.652;2022-10-26T08:26:16;13.10;;;2.22;;
22230;SDS011;11284;48.086;-1.652;2022-10-26T08:28:42;13.40;;;2.65;;
22230;SDS011;11284;48.086;-1.652;2022-10-26T08:31:08;11.38;;;2.10;;
22230;SDS011;11284;48.086;-1.652;2022-10-26T08:33:34;8.30;;;2.03;;
22230;SDS011;11284;48.086;-1.652;2022-10-26T08:36:01;12.73;;;2.45;;
22230;SDS011;11284;48.086;-1.652;2022-10-26T08:38:28;10.05;;;2.40;;
22230;SDS011;11284;48.086;-1.652;2022-10-26T08:40:55;17.17;;;2.55;;
22230;SDS011;11284;48.086;-1.652;2022-10-26T08:45:51;12.63;;;2.67;;
22230;SDS011;11284;48.086;-1.652;2022-10-26T08:48:22;16.45;;;4.18;;
22230;SDS011;11284;48.086;-1.652;2022-10-26T08:50:58;15.63;;;3.08;;
22230;SDS011;11284;48.086;-1.652;2022-10-26T08:53:28;11.88;;;2.28;;
22230;SDS011;11284;48.086;-1.652;2022-10-26T08:55:58;10.93;;;2.08;;
22230;SDS011;11284;48.086;-1.652;2022-10-26T08:58:26;13.77;;;3.33;;
22230;SDS011;11284;48.086;-1.652;2022-10-26T09:00:53;13.15;;;2.35;;
22230;SDS011;11284;48.086;-1.652;2022-10-26T09:03:19;11.43;;;2.42;;
22230;SDS011;11284;48.086;-1.652;2022-10-26T09:08:16;15.48;;;2.40;;
22230;SDS011;11284;48.086;-1.652;2022-10-26T09:10:52;12.70;;;2.38;;
22230;SDS011;11284;48.086;-1.652;2022-10-26T09:13:28;12.70;;;2.45;;
22230;SDS011;11284;48.086;-1.652;2022-10-26T09:16:34;10.75;;;2.28;;
22230;SDS011;11284;48.086;-1.652;2022-10-26T09:18:56;9.27;;;1.83;;
22230;SDS011;11284;48.086;-1.652;2022-10-26T09:24:10;9.95;;;2.17;;
22230;SDS011;11284;48.086;-1.652;2022-10-26T09:29:13;16.08;;;2.90;;
22230;SDS011;11284;48.086;-1.652;2022-10-26T09:31:44;12.60;;;2.13;;
22230;SDS011;11284;48.086;-1.652;2022-10-26T09:36:49;10.80;;;2.22;;
22230;SDS011;11284;48.086;-1.652;2022-10-26T09:42:29;9.57;;;2.45;;
22230;SDS011;11284;48.086;-1.652;2022-10-26T09:45:06;13.55;;;2.72;;
22230;SDS011;11284;48.086;-1.652;2022-10-26T09:47:37;10.25;;;2.60;;
22230;SDS011;11284;48.086;-1.652;2022-10-26T09:50:06;11.82;;;4.38;;
22230;SDS011;11284;48.086;-1.652;2022-10-26T09:52:38;7.88;;;1.65;;
22230;SDS011;11284;48.086;-1.652;2022-10-26T09:55:04;9.52;;;1.80;;
22230;SDS011;11284;48.086;-1.652;2022-10-26T09:57:31;9.23;;;1.60;;
22230;SDS011;11284;48.086;-1.652;2022-10-26T09:59:57;7.38;;;2.65;;
22230;SDS011;11284;48.086;-1.652;2022-10-26T10:02:39;6.63;;;1.33;;
22230;SDS011;11284;48.086;-1.652;2022-10-26T10:05:31;8.63;;;2.10;;
22230;SDS011;11284;48.086;-1.652;2022-10-26T10:13:26;7.90;;;1.58;;
22230;SDS011;11284;48.086;-1.652;2022-10-26T10:15:53;14.32;;;6.32;;
22230;SDS011;11284;48.086;-1.652;2022-10-26T10:18:20;12.93;;;5.40;;
22230;SDS011;11284;48.086;-1.652;2022-10-26T10:20:50;12.82;;;5.28;;
22230;SDS011;11284;48.086;-1.652;2022-10-26T10:23:50;8.98;;;2.33;;
22230;SDS011;11284;48.086;-1.652;2022-10-26T10:26:09;7.82;;;2.35;;
22230;SDS011;11284;48.086;-1.652;2022-10-26T10:28:35;9.85;;;3.20;;
22230;SDS011;11284;48.086;-1.652;2022-10-26T10:31:03;9.13;;;3.17;;
22230;SDS011;11284;48.086;-1.652;2022-10-26T10:33:33;9.93;;;3.35;;
22230;SDS011;11284;48.086;-1.652;2022-10-26T10:35:59;10.98;;;4.38;;
22230;SDS011;11284;48.086;-1.652;2022-10-26T10:38:26;12.63;;;6.10;;
22230;SDS011;11284;48.086;-1.652;2022-10-26T10:40:58;23.45;;;12.68;;
22230;SDS011;11284;48.086;-1.652;2022-10-26T10:43:27;14.63;;;7.63;;
22230;SDS011;11284;48.086;-1.652;2022-10-26T10:45:54;12.32;;;6.50;;
22230;SDS011;11284;48.086;-1.652;2022-10-26T10:48:22;10.25;;;4.72;;
22230;SDS011;11284;48.086;-1.652;2022-10-26T10:50:59;8.50;;;3.22;;
22230;SDS011;11284;48.086;-1.652;2022-10-26T11:01:14;9.55;;;4.38;;
22230;SDS011;11284;48.086;-1.652;2022-10-26T11:06:26;5.93;;;1.35;;
22230;SDS011;11284;48.086;-1.652;2022-10-26T11:08:54;6.82;;;1.48;;
22230;SDS011;11284;48.086;-1.652;2022-10-26T11:11:22;6.45;;;1.40;;
22230;SDS011;11284;48.086;-1.652;2022-10-26T11:16:27;5.10;;;1.15;;
22230;SDS011;11284;48.086;-1.652;2022-10-26T11:18:56;4.82;;;1.38;;
22230;SDS011;11284;48.086;-1.652;2022-10-26T11:21:25;5.03;;;1.10;;
22230;SDS011;11284;48.086;-1.652;2022-10-26T11:23:59;4.95;;;1.33;;
22230;SDS011;11284;48.086;-1.652;2022-10-26T11:26:28;6.45;;;1.08;;
22230;SDS011;11284;48.086;-1.652;2022-10-26T11:29:00;8.13;;;1.10;;
22230;SDS011;11284;48.086;-1.652;2022-10-26T11:31:35;6.70;;;1.25;;
22230;SDS011;11284;48.086;-1.652;2022-10-26T11:36:32;6.93;;;1.60;;
22230;SDS011;11284;48.086;-1.652;2022-10-26T11:41:30;7.00;;;1.65;;
22230;SDS011;11284;48.086;-1.652;2022-10-26T11:46:28;5.07;;;1.40;;
22230;SDS011;11284;48.086;-1.652;2022-10-26T11:49:05;6.22;;;1.90;;
22230;SDS011;11284;48.086;-1.652;2022-10-26T11:56:49;7.35;;;1.95;;
22230;SDS011;11284;48.086;-1.652;2022-10-26T11:59:18;7.00;;;2.10;;
22230;SDS011;11284;48.086;-1.652;2022-10-26T12:01:46;7.90;;;2.42;;
22230;SDS011;11284;48.086;-1.652;2022-10-26T12:04:12;6.78;;;2.00;;
22230;SDS011;11284;48.086;-1.652;2022-10-26T12:06:39;5.38;;;2.20;;
22230;SDS011;11284;48.086;-1.652;2022-10-26T12:09:06;7.38;;;2.30;;
22230;SDS011;11284;48.086;-1.652;2022-10-26T12:11:43;7.93;;;1.67;;
22230;SDS011;11284;48.086;-1.652;2022-10-26T12:14:17;8.48;;;3.47;;
22230;SDS011;11284;48.086;-1.652;2022-10-26T12:21:42;5.80;;;1.83;;
22230;SDS011;11284;48.086;-1.652;2022-10-26T12:29:25;8.45;;;1.52;;
22230;SDS011;11284;48.086;-1.652;2022-10-26T12:31:51;5.60;;;1.98;;
22230;SDS011;11284;48.086;-1.652;2022-10-26T12:39:40;9.48;;;2.95;;
22230;SDS011;11284;48.086;-1.652;2022-10-26T12:44:40;5.85;;;1.98;;
22230;SDS011;11284;48.086;-1.652;2022-10-26T12:52:30;10.88;;;2.50;;
22230;SDS011;11284;48.086;-1.652;2022-10-26T12:55:12;9.15;;;2.30;;
22230;SDS011;11284;48.086;-1.652;2022-10-26T13:00:12;6.70;;;1.95;;
22230;SDS011;11284;48.086;-1.652;2022-10-26T13:05:28;7.50;;;2.10;;
22230;SDS011;11284;48.086;-1.652;2022-10-26T13:08:15;9.30;;;1.95;;
22230;SDS011;11284;48.086;-1.652;2022-10-26T13:11:01;8.98;;;1.83;;
22230;SDS011;11284;48.086;-1.652;2022-10-26T13:13:28;8.90;;;1.92;;
22230;SDS011;11284;48.086;-1.652;2022-10-26T13:15:56;4.95;;;1.80;;
22230;SDS011;11284;48.086;-1.652;2022-10-26T13:18:22;10.95;;;2.30;;
22230;SDS011;11284;48.086;-1.652;2022-10-26T13:23:24;10.07;;;2.33;;
22230;SDS011;11284;48.086;-1.652;2022-10-26T13:28:53;9.20;;;2.00;;
22230;SDS011;11284;48.086;-1.652;2022-10-26T13:33:47;11.35;;;2.22;;
22230;SDS011;11284;48.086;-1.652;2022-10-26T13:36:17;9.02;;;1.80;;
22230;SDS011;11284;48.086;-1.652;2022-10-26T13:38:44;5.57;;;1.38;;
22230;SDS011;11284;48.086;-1.652;2022-10-26T13:41:21;11.80;;;2.15;;
22230;SDS011;11284;48.086;-1.652;2022-10-26T13:43:49;9.80;;;2.20;;
22230;SDS011;11284;48.086;-1.652;2022-10-26T13:46:24;11.32;;;2.03;;
22230;SDS011;11284;48.086;-1.652;2022-10-26T13:48:51;9.40;;;1.92;;
22230;SDS011;11284;48.086;-1.652;2022-10-26T13:51:22;9.00;;;3.30;;
22230;SDS011;11284;48.086;-1.652;2022-10-26T13:58:46;8.98;;;1.92;;
22230;SDS011;11284;48.086;-1.652;2022-10-26T14:01:15;13.50;;;2.22;;
22230;SDS011;11284;48.086;-1.652;2022-10-26T14:03:42;11.50;;;2.50;;
22230;SDS011;11284;48.086;-1.652;2022-10-26T14:08:40;10.10;;;2.08;;
22230;SDS011;11284;48.086;-1.652;2022-10-26T14:11:07;11.13;;;2.03;;
22230;SDS011;11284;48.086;-1.652;2022-10-26T14:13:35;6.40;;;1.77;;
22230;SDS011;11284;48.086;-1.652;2022-10-26T14:16:01;7.35;;;1.52;;
22230;SDS011;11284;48.086;-1.652;2022-10-26T14:18:31;7.07;;;1.80;;
22230;SDS011;11284;48.086;-1.652;2022-10-26T14:23:28;9.55;;;2.05;;
22230;SDS011;11284;48.086;-1.652;2022-10-26T14:25:57;8.05;;;1.70;;
22230;SDS011;11284;48.086;-1.652;2022-10-26T14:28:24;10.27;;;1.90;;
22230;SDS011;11284;48.086;-1.652;2022-10-26T14:30:50;10.88;;;2.00;;
22230;SDS011;11284;48.086;-1.652;2022-10-26T14:33:17;11.65;;;2.40;;
22230;SDS011;11284;48.086;-1.652;2022-10-26T14:35:44;7.82;;;1.73;;
22230;SDS011;11284;48.086;-1.652;2022-10-26T14:38:14;8.50;;;1.80;;
22230;SDS011;11284;48.086;-1.652;2022-10-26T14:40:42;9.25;;;2.60;;
22230;SDS011;11284;48.086;-1.652;2022-10-26T14:43:10;10.07;;;2.38;;
22230;SDS011;11284;48.086;-1.652;2022-10-26T14:45:37;10.43;;;2.88;;
22230;SDS011;11284;48.086;-1.652;2022-10-26T14:48:04;9.23;;;2.00;;
22230;SDS011;11284;48.086;-1.652;2022-10-26T14:50:31;8.15;;;1.65;;
22230;SDS011;11284;48.086;-1.652;2022-10-26T14:53:20;6.60;;;1.77;;
22230;SDS011;11284;48.086;-1.652;2022-10-26T14:55:49;9.35;;;2.03;;
22230;SDS011;11284;48.086;-1.652;2022-10-26T14:58:19;7.22;;;1.60;;
22230;SDS011;11284;48.086;-1.652;2022-10-26T15:00:47;10.95;;;2.08;;
22230;SDS011;11284;48.086;-1.652;2022-10-26T15:03:33;10.05;;;1.80;;
22230;SDS011;11284;48.086;-1.652;2022-10-26T15:06:20;8.98;;;2.15;;
22230;SDS011;11284;48.086;-1.652;2022-10-26T15:08:45;9.10;;;2.33;;
22230;SDS011;11284;48.086;-1.652;2022-10-26T15:11:12;9.85;;;2.17;;
22230;SDS011;11284;48.086;-1.652;2022-10-26T15:13:39;7.07;;;1.70;;
22230;SDS011;11284;48.086;-1.652;2022-10-26T15:16:08;8.32;;;1.73;;
22230;SDS011;11284;48.086;-1.652;2022-10-26T15:18:35;7.45;;;1.77;;
22230;SDS011;11284;48.086;-1.652;2022-10-26T15:21:02;10.88;;;1.88;;
22230;SDS011;11284;48.086;-1.652;2022-10-26T15:23:28;8.70;;;1.80;;
22230;SDS011;11284;48.086;-1.652;2022-10-26T15:25:58;12.32;;;2.13;;
22230;SDS011;11284;48.086;-1.652;2022-10-26T15:31:01;10.52;;;1.90;;
22230;SDS011;11284;48.086;-1.652;2022-10-26T15:33:28;9.38;;;1.98;;
22230;SDS011;11284;48.086;-1.652;2022-10-26T15:38:35;9.57;;;2.40;;
22230;SDS011;11284;48.086;-1.652;2022-10-26T15:41:24;6.15;;;1.85;;
22230;SDS011;11284;48.086;-1.652;2022-10-26T15:43:48;10.23;;;2.53;;
22230;SDS011;11284;48.086;-1.652;2022-10-26T15:46:15;8.90;;;2.20;;
22230;SDS011;11284;48.086;-1.652;2022-10-26T15:48:41;7.82;;;1.90;;
22230;SDS011;11284;48.086;-1.652;2022-10-26T15:51:11;7.93;;;2.42;;
22230;SDS011;11284;48.086;-1.652;2022-10-26T15:53:40;9.13;;;1.75;;
22230;SDS011;11284;48.086;-1.652;2022-10-26T15:56:12;13.02;;;4.20;;
22230;SDS011;11284;48.086;-1.652;2022-10-26T15:58:39;14.87;;;2.47;;
22230;SDS011;11284;48.086;-1.652;2022-10-26T16:01:05;8.27;;;2.42;;
22230;SDS011;11284;48.086;-1.652;2022-10-26T16:03:31;9.35;;;2.28;;
22230;SDS011;11284;48.086;-1.652;2022-10-26T16:05:58;11.05;;;2.72;;
22230;SDS011;11284;48.086;-1.652;2022-10-26T16:08:25;10.13;;;2.95;;
22230;SDS011;11284;48.086;-1.652;2022-10-26T16:10:51;11.00;;;2.60;;
22230;SDS011;11284;48.086;-1.652;2022-10-26T16:13:18;11.57;;;2.75;;
22230;SDS011;11284;48.086;-1.652;2022-10-26T16:15:44;14.75;;;3.47;;
22230;SDS011;11284;48.086;-1.652;2022-10-26T16:18:10;11.40;;;3.30;;
22230;SDS011;11284;48.086;-1.652;2022-10-26T16:20:36;9.80;;;2.78;;
22230;SDS011;11284;48.086;-1.652;2022-10-26T16:23:02;12.43;;;3.47;;
22230;SDS011;11284;48.086;-1.652;2022-10-26T16:25:31;12.50;;;3.33;;
22230;SDS011;11284;48.086;-1.652;2022-10-26T16:27:58;9.52;;;3.65;;
22230;SDS011;11284;48.086;-1.652;2022-10-26T16:30:24;10.45;;;3.65;;
22230;SDS011;11284;48.086;-1.652;2022-10-26T16:32:50;11.80;;;3.38;;
22230;SDS011;11284;48.086;-1.652;2022-10-26T16:35:16;11.00;;;3.58;;
22230;SDS011;11284;48.086;-1.652;2022-10-26T16:37:42;10.07;;;3.88;;
22230;SDS011;11284;48.086;-1.652;2022-10-26T16:40:08;11.48;;;3.78;;
22230;SDS011;11284;48.086;-1.652;2022-10-26T16:42:34;9.48;;;3.47;;
22230;SDS011;11284;48.086;-1.652;2022-10-26T16:45:00;13.63;;;5.22;;
22230;SDS011;11284;48.086;-1.652;2022-10-26T16:47:26;10.48;;;4.57;;
22230;SDS011;11284;48.086;-1.652;2022-10-26T16:49:52;11.68;;;3.97;;
22230;SDS011;11284;48.086;-1.652;2022-10-26T16:52:18;9.10;;;3.72;;
22230;SDS011;11284;48.086;-1.652;2022-10-26T16:54:44;11.60;;;3.45;;
22230;SDS011;11284;48.086;-1.652;2022-10-26T16:57:10;10.77;;;3.50;;
22230;SDS011;11284;48.086;-1.652;2022-10-26T16:59:36;12.85;;;3.70;;
22230;SDS011;11284;48.086;-1.652;2022-10-26T17:02:02;12.50;;;3.42;;
22230;SDS011;11284;48.086;-1.652;2022-10-26T17:04:28;8.23;;;2.67;;
22230;SDS011;11284;48.086;-1.652;2022-10-26T17:06:54;10.00;;;3.33;;